Time;durP1;ratioP1;P1;durP2;ratioP2;P2;SDS_P1;SDS_P2;PMS_P1;PMS_P2;Temp;Humidity;BMP_temperature;BMP_pressure;BME280_temperature;BME280_humidity;BME280_pressure;Samples;Min_cycle;Max_cycle;Signal;HPM_P1;HPM_P2
2022/09/28 00:01:21;;;;;;;1.43;1.10;;;;;;;;;;5067773;28;20185;-70
2022/09/28 00:03:48;;;;;;;1.17;1.07;;;;;;;;;;5065939;28;20199;-70
2022/09/28 00:09:16;;;;;;;0.87;0.87;;;;;;;;;;5064929;28;20803;-70
2022/09/28 00:11:42;;;;;;;1.20;1.00;;;;;;;;;;5068065;28;20395;-70
2022/09/28 00:14:08;;;;;;;1.07;0.90;;;;;;;;;;5065141;28;20216;-70
2022/09/28 00:16:35;;;;;;;0.97;0.83;;;;;;;;;;5061801;28;20233;-70
2022/09/28 00:19:18;;;;;;;1.60;0.83;;;;;;;;;;5066250;28;20250;-70
2022/09/28 00:21:44;;;;;;;2.27;1.10;;;;;;;;;;5067110;28;20204;-70
2022/09/28 00:24:11;;;;;;;0.57;0.57;;;;;;;;;;5070896;28;20187;-70
2022/09/28 00:26:50;;;;;;;0.60;0.60;;;;;;;;;;5070322;28;20244;-71
2022/09/28 00:29:17;;;;;;;1.20;0.70;;;;;;;;;;5064196;28;20190;-71
2022/09/28 00:31:42;;;;;;;1.03;1.00;;;;;;;;;;5071111;28;20183;-71
2022/09/28 00:34:07;;;;;;;1.23;1.07;;;;;;;;;;5063830;28;20237;-70
2022/09/28 00:36:33;;;;;;;1.27;1.07;;;;;;;;;;5061662;28;20210;-71
2022/09/28 00:39:02;;;;;;;0.70;0.70;;;;;;;;;;5067154;28;20181;-70
2022/09/28 00:41:28;;;;;;;1.00;0.90;;;;;;;;;;5063203;28;20184;-71
2022/09/28 00:44:13;;;;;;;1.20;0.80;;;;;;;;;;5063066;28;20234;-70
2022/09/28 00:46:39;;;;;;;0.80;0.80;;;;;;;;;;5085740;28;20209;-70
2022/09/28 00:49:10;;;;;;;0.73;0.70;;;;;;;;;;5069479;28;20289;-70
2022/09/28 00:51:37;;;;;;;3.43;0.93;;;;;;;;;;5070368;28;20191;-71
2022/09/28 00:54:04;;;;;;;1.10;1.00;;;;;;;;;;5065751;28;20190;-70
2022/09/28 00:56:30;;;;;;;0.90;0.90;;;;;;;;;;5063223;28;20217;-71
2022/09/28 00:58:56;;;;;;;1.00;1.00;;;;;;;;;;5062766;28;20205;-70
2022/09/28 01:01:22;;;;;;;0.90;0.90;;;;;;;;;;5068202;28;20185;-70
2022/09/28 01:03:47;;;;;;;0.70;0.70;;;;;;;;;;5061567;28;20175;-71
2022/09/28 01:06:23;;;;;;;0.90;0.90;;;;;;;;;;5063206;28;20215;-71
2022/09/28 01:08:50;;;;;;;0.90;0.90;;;;;;;;;;5068467;28;20184;-70
2022/09/28 01:11:16;;;;;;;1.37;1.27;;;;;;;;;;5065975;28;20188;-71
2022/09/28 01:13:42;;;;;;;2.53;1.17;;;;;;;;;;5068232;28;20182;-70
2022/09/28 01:19:10;;;;;;;1.43;1.33;;;;;;;;;;5067828;28;20188;-71
2022/09/28 01:21:41;;;;;;;1.20;1.10;;;;;;;;;;5062066;28;20181;-71
2022/09/28 01:27:25;;;;;;;1.70;1.30;;;;;;;;;;5067723;28;20307;-70
2022/09/28 01:29:59;;;;;;;1.33;1.23;;;;;;;;;;5066967;28;20381;-71
2022/09/28 01:32:39;;;;;;;2.00;1.07;;;;;;;;;;5039840;28;20331;-71
2022/09/28 01:35:31;;;;;;;1.20;1.10;;;;;;;;;;5042944;28;20197;-72
2022/09/28 01:38:01;;;;;;;1.10;1.03;;;;;;;;;;5005919;28;20289;-71
2022/09/28 01:40:28;;;;;;;1.20;1.10;;;;;;;;;;5063908;28;20407;-70
2022/09/28 01:42:56;;;;;;;1.50;1.20;;;;;;;;;;5041731;28;20189;-71
2022/09/28 01:45:33;;;;;;;1.20;1.10;;;;;;;;;;5046020;28;20245;-71
2022/09/28 01:48:00;;;;;;;1.30;1.20;;;;;;;;;;5040089;28;20192;-71
2022/09/28 01:50:28;;;;;;;1.00;1.00;;;;;;;;;;5042287;28;20274;-71
2022/09/28 01:52:58;;;;;;;1.33;1.00;;;;;;;;;;5042987;28;20191;-71
2022/09/28 01:55:27;;;;;;;3.00;1.07;;;;;;;;;;5043896;28;20256;-70
2022/09/28 01:57:59;;;;;;;1.50;1.13;;;;;;;;;;5042155;28;20204;-70
2022/09/28 02:00:25;;;;;;;1.10;1.10;;;;;;;;;;5049924;28;20206;-71
2022/09/28 02:03:00;;;;;;;2.13;1.00;;;;;;;;;;5040134;28;20190;-71
2022/09/28 02:05:25;;;;;;;0.93;0.93;;;;;;;;;;5047546;28;20237;-71
2022/09/28 02:07:50;;;;;;;2.43;1.10;;;;;;;;;;5043634;28;20217;-70
2022/09/28 02:10:18;;;;;;;2.10;1.27;;;;;;;;;;5048401;28;20188;-71
2022/09/28 02:12:46;;;;;;;1.50;1.20;;;;;;;;;;5046145;28;20185;-71
2022/09/28 02:15:32;;;;;;;2.70;1.30;;;;;;;;;;5048281;28;20176;-71
2022/09/28 02:17:57;;;;;;;4.50;1.50;;;;;;;;;;5043520;28;20198;-71
2022/09/28 02:20:23;;;;;;;1.47;1.20;;;;;;;;;;5044195;28;20223;-71
2022/09/28 02:22:50;;;;;;;3.10;1.47;;;;;;;;;;5046017;28;20256;-70
2022/09/28 02:25:35;;;;;;;2.40;1.30;;;;;;;;;;5049680;28;20184;-71
2022/09/28 02:28:03;;;;;;;1.90;1.43;;;;;;;;;;5041734;28;20203;-71
2022/09/28 02:30:29;;;;;;;3.90;1.37;;;;;;;;;;5046292;28;20225;-71
2022/09/28 02:32:56;;;;;;;2.23;1.30;;;;;;;;;;5064208;28;20265;-71
2022/09/28 02:38:24;;;;;;;2.70;1.20;;;;;;;;;;5067200;28;20276;-71
2022/09/28 02:40:56;;;;;;;1.60;1.37;;;;;;;;;;5066571;28;20266;-71
2022/09/28 02:43:40;;;;;;;1.80;0.90;;;;;;;;;;5084602;28;20176;-70
2022/09/28 02:46:08;;;;;;;1.10;0.90;;;;;;;;;;5062230;28;20221;-71
2022/09/28 02:48:46;;;;;;;2.40;0.90;;;;;;;;;;5068521;28;20195;-71
2022/09/28 02:51:23;;;;;;;2.17;0.80;;;;;;;;;;5064970;28;20188;-71
2022/09/28 02:57:10;;;;;;;1.07;0.97;;;;;;;;;;5060146;28;20268;-71
2022/09/28 02:59:36;;;;;;;0.60;0.60;;;;;;;;;;5080295;28;20178;-71
2022/09/28 03:02:10;;;;;;;1.13;0.90;;;;;;;;;;5067431;28;20174;-70
2022/09/28 03:04:38;;;;;;;1.77;0.90;;;;;;;;;;5068460;28;20175;-71
2022/09/28 03:07:06;;;;;;;1.03;0.93;;;;;;;;;;5063762;28;20177;-70
2022/09/28 03:10:01;;;;;;;1.40;0.80;;;;;;;;;;5064162;28;20171;-71
2022/09/28 03:12:28;;;;;;;0.70;0.70;;;;;;;;;;5003898;28;20202;-71
2022/09/28 03:15:09;;;;;;;0.83;0.80;;;;;;;;;;5066786;28;20179;-71
2022/09/28 03:17:34;;;;;;;0.93;0.80;;;;;;;;;;5063326;28;20196;-71
2022/09/28 03:20:00;;;;;;;0.67;0.67;;;;;;;;;;5067093;28;20172;-71
2022/09/28 03:22:25;;;;;;;0.97;0.73;;;;;;;;;;5064857;28;20269;-71
2022/09/28 03:27:53;;;;;;;1.83;0.70;;;;;;;;;;5069057;28;20200;-71
2022/09/28 03:30:18;;;;;;;1.27;0.47;;;;;;;;;;5062753;28;20203;-71
2022/09/28 03:35:55;;;;;;;0.37;0.30;;;;;;;;;;5062057;28;20202;-71
2022/09/28 03:38:20;;;;;;;1.13;0.70;;;;;;;;;;5061228;28;20197;-71
2022/09/28 03:40:52;;;;;;;1.00;0.57;;;;;;;;;;5065478;28;20221;-71
2022/09/28 03:46:20;;;;;;;0.77;0.77;;;;;;;;;;5061104;28;20235;-71
2022/09/28 03:48:45;;;;;;;0.67;0.57;;;;;;;;;;5056756;28;20176;-71
2022/09/28 03:51:11;;;;;;;1.30;1.20;;;;;;;;;;5064512;28;20183;-71
2022/09/28 03:53:37;;;;;;;3.50;1.00;;;;;;;;;;5061031;28;20185;-71
2022/09/28 03:56:12;;;;;;;2.83;0.70;;;;;;;;;;5063131;28;20288;-71
2022/09/28 03:58:37;;;;;;;2.93;0.97;;;;;;;;;;5060145;28;20170;-71
2022/09/28 04:01:03;;;;;;;0.60;0.60;;;;;;;;;;5071637;28;20182;-71
2022/09/28 04:03:29;;;;;;;2.20;0.80;;;;;;;;;;5065617;28;20266;-71
2022/09/28 04:05:54;;;;;;;1.30;1.20;;;;;;;;;;5065645;28;20212;-71
2022/09/28 04:08:19;;;;;;;0.70;0.70;;;;;;;;;;5070194;28;20185;-71
2022/09/28 04:10:45;;;;;;;0.93;0.93;;;;;;;;;;5070939;28;20179;-71
2022/09/28 04:13:10;;;;;;;2.80;0.80;;;;;;;;;;5060009;28;20233;-71
2022/09/28 04:15:37;;;;;;;1.30;0.80;;;;;;;;;;5071713;28;20191;-71
2022/09/28 04:18:02;;;;;;;2.97;0.90;;;;;;;;;;5066548;28;20217;-71
2022/09/28 04:20:28;;;;;;;2.83;1.20;;;;;;;;;;5066102;28;20191;-71
2022/09/28 04:22:54;;;;;;;2.80;0.90;;;;;;;;;;5072944;28;20179;-71
2022/09/28 04:25:19;;;;;;;0.80;0.80;;;;;;;;;;5063724;28;20180;-71
2022/09/28 04:30:28;;;;;;;1.97;1.23;;;;;;;;;;5063534;28;20205;-71
2022/09/28 04:32:53;;;;;;;0.87;0.80;;;;;;;;;;5068181;28;20185;-71
2022/09/28 04:35:19;;;;;;;1.07;0.97;;;;;;;;;;5062056;28;20187;-71
2022/09/28 04:37:44;;;;;;;0.93;0.70;;;;;;;;;;5066018;28;20204;-71
2022/09/28 04:40:09;;;;;;;1.27;1.10;;;;;;;;;;5063192;28;20186;-72
2022/09/28 04:42:35;;;;;;;2.27;1.43;;;;;;;;;;5063358;28;20173;-71
2022/09/28 04:45:01;;;;;;;1.30;1.20;;;;;;;;;;5071938;28;20191;-71
2022/09/28 04:47:26;;;;;;;1.07;0.90;;;;;;;;;;5066403;28;20184;-71
2022/09/28 04:49:51;;;;;;;1.30;1.20;;;;;;;;;;5064556;28;20253;-71
2022/09/28 04:52:16;;;;;;;0.70;0.70;;;;;;;;;;5065373;28;20179;-71
2022/09/28 04:54:42;;;;;;;1.00;0.70;;;;;;;;;;5069363;28;20192;-71
2022/09/28 04:57:07;;;;;;;0.80;0.80;;;;;;;;;;5067104;28;20216;-71
2022/09/28 04:59:32;;;;;;;0.83;0.63;;;;;;;;;;5067862;28;20179;-71
2022/09/28 05:01:57;;;;;;;1.10;1.00;;;;;;;;;;5061984;28;20176;-76
2022/09/28 05:04:23;;;;;;;0.77;0.77;;;;;;;;;;5071843;28;20247;-74
2022/09/28 05:06:48;;;;;;;2.33;0.73;;;;;;;;;;5073202;28;20195;-74
2022/09/28 05:09:13;;;;;;;0.80;0.80;;;;;;;;;;5058490;28;20205;-74
2022/09/28 05:11:57;;;;;;;1.40;1.30;;;;;;;;;;5070241;28;20183;-74
2022/09/28 05:17:25;;;;;;;1.47;1.00;;;;;;;;;;5062945;28;20273;-74
2022/09/28 05:19:54;;;;;;;1.20;1.13;;;;;;;;;;5071303;28;20213;-73
2022/09/28 05:22:19;;;;;;;1.83;1.50;;;;;;;;;;5058996;28;20746;-74
2022/09/28 05:24:45;;;;;;;3.00;1.80;;;;;;;;;;5066482;28;20232;-74
2022/09/28 05:27:10;;;;;;;2.10;1.30;;;;;;;;;;5063375;28;20205;-74
2022/09/28 05:29:35;;;;;;;2.03;1.93;;;;;;;;;;5059050;28;20192;-74
2022/09/28 05:32:01;;;;;;;2.87;1.97;;;;;;;;;;5062247;28;21457;-75
2022/09/28 05:34:26;;;;;;;1.90;1.80;;;;;;;;;;5058714;28;20206;-74
2022/09/28 05:36:51;;;;;;;3.77;3.00;;;;;;;;;;5063681;28;20198;-74
2022/09/28 05:39:16;;;;;;;2.47;1.70;;;;;;;;;;5062206;28;20285;-74
2022/09/28 05:41:41;;;;;;;3.03;1.70;;;;;;;;;;5060304;28;20178;-74
2022/09/28 05:44:07;;;;;;;1.73;1.63;;;;;;;;;;5062228;28;20241;-74
2022/09/28 05:46:32;;;;;;;2.43;1.60;;;;;;;;;;5060275;28;20242;-74
2022/09/28 05:48:59;;;;;;;3.40;1.73;;;;;;;;;;5061183;28;20291;-74
2022/09/28 05:51:24;;;;;;;1.43;1.30;;;;;;;;;;5062317;28;20186;-74
2022/09/28 05:53:49;;;;;;;1.10;1.00;;;;;;;;;;5063944;28;20196;-74
2022/09/28 05:56:14;;;;;;;2.17;1.47;;;;;;;;;;5065501;28;20209;-74
2022/09/28 05:58:40;;;;;;;4.00;1.70;;;;;;;;;;5064763;28;20180;-74
2022/09/28 06:01:05;;;;;;;2.10;1.90;;;;;;;;;;5058878;28;20174;-74
2022/09/28 06:03:30;;;;;;;1.77;1.43;;;;;;;;;;5060431;28;20186;-74
2022/09/28 06:05:55;;;;;;;3.43;1.90;;;;;;;;;;5063908;28;20278;-73
2022/09/28 06:08:21;;;;;;;5.60;2.40;;;;;;;;;;5063016;28;20184;-74
2022/09/28 06:10:46;;;;;;;4.70;2.23;;;;;;;;;;5068644;28;20243;-74
2022/09/28 06:13:11;;;;;;;2.33;1.70;;;;;;;;;;5067033;28;20178;-73
2022/09/28 06:15:37;;;;;;;7.20;2.70;;;;;;;;;;5066584;28;20192;-74
2022/09/28 06:18:03;;;;;;;3.10;2.67;;;;;;;;;;5064224;28;20212;-74
2022/09/28 06:20:30;;;;;;;2.50;1.93;;;;;;;;;;5065144;28;20171;-74
2022/09/28 06:22:55;;;;;;;6.40;2.90;;;;;;;;;;5055851;28;20187;-74
2022/09/28 06:25:21;;;;;;;5.00;3.13;;;;;;;;;;5061175;28;20245;-74
2022/09/28 06:28:00;;;;;;;5.67;2.80;;;;;;;;;;5061489;28;20243;-73
2022/09/28 06:30:25;;;;;;;4.60;3.47;;;;;;;;;;5074062;28;20183;-74
2022/09/28 06:32:55;;;;;;;4.23;3.10;;;;;;;;;;5069817;28;20188;-74
2022/09/28 06:35:20;;;;;;;6.47;3.07;;;;;;;;;;5082974;28;20197;-73
2022/09/28 06:37:46;;;;;;;6.03;3.23;;;;;;;;;;5064017;28;20200;-74
2022/09/28 06:40:12;;;;;;;3.90;2.80;;;;;;;;;;5069509;28;20186;-74
2022/09/28 06:42:37;;;;;;;4.60;3.10;;;;;;;;;;5064368;28;20273;-75
2022/09/28 06:45:03;;;;;;;3.60;1.80;;;;;;;;;;5059491;28;20240;-74
2022/09/28 06:47:28;;;;;;;2.27;1.80;;;;;;;;;;5070266;28;20214;-74
2022/09/28 06:49:54;;;;;;;2.50;1.43;;;;;;;;;;5065742;28;20253;-74
2022/09/28 06:52:21;;;;;;;2.03;1.73;;;;;;;;;;5064300;28;20192;-74
2022/09/28 06:54:47;;;;;;;4.13;1.70;;;;;;;;;;5066410;28;20210;-74
2022/09/28 06:57:12;;;;;;;2.43;1.70;;;;;;;;;;5063450;28;20482;-74
2022/09/28 06:59:37;;;;;;;1.53;1.37;;;;;;;;;;5064745;28;20240;-74
2022/09/28 07:02:07;;;;;;;1.87;1.77;;;;;;;;;;5063773;28;20321;-74
2022/09/28 07:04:32;;;;;;;5.27;2.23;;;;;;;;;;5063127;28;20180;-74
2022/09/28 07:06:58;;;;;;;2.70;1.60;;;;;;;;;;5063530;28;20186;-74
2022/09/28 07:09:23;;;;;;;2.67;1.97;;;;;;;;;;5064342;28;20262;-74
2022/09/28 07:11:49;;;;;;;3.73;1.70;;;;;;;;;;5070393;28;20199;-73
2022/09/28 07:14:14;;;;;;;2.63;2.00;;;;;;;;;;5065382;28;20191;-74
2022/09/28 07:16:39;;;;;;;3.20;2.23;;;;;;;;;;5069346;28;20270;-74
2022/09/28 07:19:05;;;;;;;7.07;4.30;;;;;;;;;;5061127;28;20214;-73
2022/09/28 07:21:30;;;;;;;3.50;3.30;;;;;;;;;;5067638;28;20169;-73
2022/09/28 07:23:55;;;;;;;2.53;2.33;;;;;;;;;;5070842;28;20193;-73
2022/09/28 07:26:21;;;;;;;7.43;4.90;;;;;;;;;;5066912;28;20184;-74
2022/09/28 07:28:46;;;;;;;5.30;4.33;;;;;;;;;;5071540;28;20207;-73
2022/09/28 07:31:11;;;;;;;3.47;3.13;;;;;;;;;;5067434;28;20256;-74
2022/09/28 07:33:36;;;;;;;6.43;4.70;;;;;;;;;;5074200;28;20175;-73
2022/09/28 07:36:05;;;;;;;6.77;4.70;;;;;;;;;;5066531;28;20238;-73
2022/09/28 07:38:31;;;;;;;5.53;3.13;;;;;;;;;;5071379;28;20180;-74
2022/09/28 07:41:13;;;;;;;8.03;4.07;;;;;;;;;;5069350;28;20183;-74
2022/09/28 07:43:38;;;;;;;7.70;4.47;;;;;;;;;;5066629;28;20171;-73
2022/09/28 07:46:08;;;;;;;10.07;6.63;;;;;;;;;;5069713;28;20277;-73
2022/09/28 07:48:35;;;;;;;5.50;4.00;;;;;;;;;;5058762;28;20247;-73
2022/09/28 07:51:00;;;;;;;6.00;4.07;;;;;;;;;;5073010;28;20183;-73
2022/09/28 07:53:26;;;;;;;4.97;3.03;;;;;;;;;;5073703;28;20171;-73
2022/09/28 07:56:02;;;;;;;2.90;2.60;;;;;;;;;;5071421;28;20175;-74
2022/09/28 07:58:28;;;;;;;3.67;3.37;;;;;;;;;;5081949;28;20182;-73
2022/09/28 08:00:53;;;;;;;4.93;3.17;;;;;;;;;;5068523;28;20170;-73
2022/09/28 08:03:22;;;;;;;8.70;3.10;;;;;;;;;;5072375;28;20181;-74
2022/09/28 08:05:49;;;;;;;10.70;3.97;;;;;;;;;;5064027;28;20194;-74
2022/09/28 08:08:15;;;;;;;3.57;2.60;;;;;;;;;;5068052;28;20186;-73
2022/09/28 08:10:43;;;;;;;6.10;3.17;;;;;;;;;;5076825;28;20263;-74
2022/09/28 08:13:09;;;;;;;3.90;2.80;;;;;;;;;;5076335;28;20193;-73
2022/09/28 08:15:35;;;;;;;4.80;3.50;;;;;;;;;;5078807;28;20187;-74
2022/09/28 08:18:01;;;;;;;3.60;3.27;;;;;;;;;;5064207;28;20211;-74
2022/09/28 08:29:16;;;;;;;8.07;3.90;;;;;;;;;;5079441;28;20213;-74
2022/09/28 08:31:43;;;;;;;5.03;3.13;;;;;;;;;;5074427;28;20246;-75
2022/09/28 08:34:10;;;;;;;3.97;3.03;;;;;;;;;;5070843;28;20200;-74
2022/09/28 08:36:35;;;;;;;4.33;3.40;;;;;;;;;;5058095;28;20206;-72
2022/09/28 08:39:00;;;;;;;5.30;3.53;;;;;;;;;;5068634;28;20189;-72
2022/09/28 08:41:37;;;;;;;4.77;3.10;;;;;;;;;;5063910;28;20271;-72
2022/09/28 08:44:12;;;;;;;3.70;2.90;;;;;;;;;;5068431;28;20190;-73
2022/09/28 08:46:40;;;;;;;5.30;3.57;;;;;;;;;;5070599;28;20232;-74
2022/09/28 08:49:08;;;;;;;7.83;2.80;;;;;;;;;;5073581;28;20239;-73
2022/09/28 08:51:41;;;;;;;6.63;3.50;;;;;;;;;;5073620;28;20205;-74
2022/09/28 08:54:18;;;;;;;4.20;3.63;;;;;;;;;;5068444;28;20205;-73
2022/09/28 08:56:47;;;;;;;4.83;3.33;;;;;;;;;;5071765;28;20205;-74
2022/09/28 08:59:18;;;;;;;6.87;3.70;;;;;;;;;;5082038;28;20182;-74
2022/09/28 09:01:47;;;;;;;4.90;3.33;;;;;;;;;;5066962;28;20203;-74
2022/09/28 09:04:13;;;;;;;3.40;3.10;;;;;;;;;;5062572;28;20188;-74
2022/09/28 09:06:57;;;;;;;3.30;3.00;;;;;;;;;;5066610;28;20200;-74
2022/09/28 09:09:40;;;;;;;4.87;3.10;;;;;;;;;;5067507;28;20250;-74
2022/09/28 09:12:08;;;;;;;3.83;2.80;;;;;;;;;;5070819;28;20212;-74
2022/09/28 09:14:43;;;;;;;5.37;2.60;;;;;;;;;;5077067;28;20179;-74
2022/09/28 09:17:14;;;;;;;7.63;4.17;;;;;;;;;;5079777;28;20205;-74
2022/09/28 09:19:53;;;;;;;5.47;2.90;;;;;;;;;;5067844;28;20177;-74
2022/09/28 09:22:24;;;;;;;5.40;3.17;;;;;;;;;;5070138;28;20182;-74
2022/09/28 09:24:52;;;;;;;5.50;2.70;;;;;;;;;;5080367;28;20172;-74
2022/09/28 09:27:20;;;;;;;8.23;2.83;;;;;;;;;;5068234;28;20195;-74
2022/09/28 09:29:51;;;;;;;4.60;2.53;;;;;;;;;;5065111;28;20275;-74
2022/09/28 09:32:35;;;;;;;7.10;2.97;;;;;;;;;;5070919;28;20240;-74
2022/09/28 09:35:07;;;;;;;3.47;2.90;;;;;;;;;;5068911;28;20212;-74
2022/09/28 09:37:48;;;;;;;5.23;3.23;;;;;;;;;;5061429;28;20251;-73
2022/09/28 09:40:40;;;;;;;4.47;3.13;;;;;;;;;;5071351;28;20188;-74
2022/09/28 09:43:16;;;;;;;4.53;2.70;;;;;;;;;;5062277;28;20173;-74
2022/09/28 09:45:44;;;;;;;5.50;3.13;;;;;;;;;;5076270;28;20197;-74
2022/09/28 09:48:15;;;;;;;5.03;3.10;;;;;;;;;;5075609;28;20191;-74
2022/09/28 09:50:46;;;;;;;3.50;2.83;;;;;;;;;;5069314;28;20184;-74
2022/09/28 09:53:11;;;;;;;6.37;3.57;;;;;;;;;;5070494;28;20199;-74
2022/09/28 09:55:39;;;;;;;3.77;3.03;;;;;;;;;;5068423;28;20187;-74
2022/09/28 09:58:04;;;;;;;5.20;2.90;;;;;;;;;;5076845;28;20324;-74
2022/09/28 10:00:30;;;;;;;3.40;3.13;;;;;;;;;;5067642;28;20279;-74
2022/09/28 10:02:56;;;;;;;4.33;2.80;;;;;;;;;;5065048;28;20166;-74
2022/09/28 10:05:24;;;;;;;5.93;3.30;;;;;;;;;;5070166;28;20190;-73
2022/09/28 10:08:07;;;;;;;4.10;3.00;;;;;;;;;;5064535;28;20184;-73
2022/09/28 10:10:37;;;;;;;4.77;3.40;;;;;;;;;;5066096;28;20274;-74
2022/09/28 10:13:03;;;;;;;6.70;3.60;;;;;;;;;;5066360;28;20211;-74
2022/09/28 10:15:29;;;;;;;5.87;3.57;;;;;;;;;;5075524;28;20217;-74
2022/09/28 10:17:56;;;;;;;4.57;3.20;;;;;;;;;;5069511;28;20261;-74
2022/09/28 10:20:22;;;;;;;5.57;3.13;;;;;;;;;;5065030;28;20173;-74
2022/09/28 10:22:49;;;;;;;6.60;3.47;;;;;;;;;;5075423;28;20183;-73
2022/09/28 10:25:14;;;;;;;5.07;4.10;;;;;;;;;;5075148;28;20276;-74
2022/09/28 10:27:44;;;;;;;5.27;3.43;;;;;;;;;;5077875;28;20264;-74
2022/09/28 10:30:09;;;;;;;6.07;2.93;;;;;;;;;;5059439;28;20184;-74
2022/09/28 10:32:44;;;;;;;5.80;2.80;;;;;;;;;;5068769;28;20227;-74
2022/09/28 10:35:13;;;;;;;4.17;2.67;;;;;;;;;;5069526;28;20183;-73
2022/09/28 10:37:49;;;;;;;7.60;3.90;;;;;;;;;;5071765;28;20406;-73
2022/09/28 10:40:29;;;;;;;3.43;2.93;;;;;;;;;;5071833;28;20264;-74
2022/09/28 10:43:23;;;;;;;7.57;3.37;;;;;;;;;;5067290;28;20176;-74
2022/09/28 10:45:58;;;;;;;9.23;3.77;;;;;;;;;;5053252;28;20184;-74
2022/09/28 10:48:24;;;;;;;4.40;3.10;;;;;;;;;;5067050;28;20180;-74
2022/09/28 10:50:57;;;;;;;7.47;2.90;;;;;;;;;;5066153;28;20170;-73
2022/09/28 10:53:22;;;;;;;3.63;2.83;;;;;;;;;;5069172;28;20181;-73
2022/09/28 10:55:58;;;;;;;3.73;2.70;;;;;;;;;;5076050;28;20189;-74
2022/09/28 10:58:41;;;;;;;5.43;2.47;;;;;;;;;;5070796;28;20173;-74
2022/09/28 11:01:09;;;;;;;4.00;2.63;;;;;;;;;;5065205;28;20204;-74
2022/09/28 11:03:36;;;;;;;3.73;2.33;;;;;;;;;;5069597;28;20170;-73
2022/09/28 11:06:04;;;;;;;4.83;2.50;;;;;;;;;;5073681;28;20204;-73
2022/09/28 11:08:33;;;;;;;3.57;2.30;;;;;;;;;;5077534;28;20176;-74
2022/09/28 11:11:11;;;;;;;3.80;2.50;;;;;;;;;;5065526;28;20181;-73
2022/09/28 11:13:50;;;;;;;6.07;2.70;;;;;;;;;;5055413;28;20517;-73
2022/09/28 11:16:18;;;;;;;3.57;2.70;;;;;;;;;;5074949;28;20295;-74
2022/09/28 11:18:44;;;;;;;4.10;2.53;;;;;;;;;;5072470;28;20181;-73
2022/09/28 11:21:13;;;;;;;4.30;3.10;;;;;;;;;;5085338;28;20286;-74
2022/09/28 11:23:39;;;;;;;7.93;3.67;;;;;;;;;;5075417;28;20267;-73
2022/09/28 11:26:06;;;;;;;4.10;2.23;;;;;;;;;;5082217;28;20176;-73
2022/09/28 11:28:32;;;;;;;5.53;2.93;;;;;;;;;;5069269;28;20173;-73
2022/09/28 11:30:58;;;;;;;5.27;2.67;;;;;;;;;;5072843;28;20182;-74
2022/09/28 11:33:30;;;;;;;5.40;2.73;;;;;;;;;;5073560;28;20181;-73
2022/09/28 11:35:59;;;;;;;4.83;2.63;;;;;;;;;;5073457;28;20258;-73
2022/09/28 11:38:39;;;;;;;4.60;2.40;;;;;;;;;;5076340;28;20184;-74
2022/09/28 11:41:23;;;;;;;5.17;2.53;;;;;;;;;;5072115;28;20181;-74
2022/09/28 11:44:07;;;;;;;3.33;2.60;;;;;;;;;;5066968;28;20169;-74
2022/09/28 11:46:47;;;;;;;2.20;2.00;;;;;;;;;;5065571;28;20173;-73
2022/09/28 11:49:15;;;;;;;6.57;2.73;;;;;;;;;;5072205;28;20181;-74
2022/09/28 11:51:42;;;;;;;3.53;2.37;;;;;;;;;;5073592;28;20264;-73
2022/09/28 11:54:13;;;;;;;2.50;2.17;;;;;;;;;;5082723;28;20184;-74
2022/09/28 11:56:40;;;;;;;2.43;2.23;;;;;;;;;;5071494;28;20216;-74
2022/09/28 11:59:26;;;;;;;4.03;3.13;;;;;;;;;;5063791;28;20174;-74
2022/09/28 12:01:51;;;;;;;4.17;2.40;;;;;;;;;;5073072;28;20237;-73
2022/09/28 12:04:16;;;;;;;3.07;2.10;;;;;;;;;;5073139;28;20181;-74
2022/09/28 12:07:14;;;;;;;1.70;1.60;;;;;;;;;;5081030;28;20260;-74
2022/09/28 12:09:42;;;;;;;3.50;2.27;;;;;;;;;;5029375;28;20185;-73
2022/09/28 12:12:33;;;;;;;3.77;1.90;;;;;;;;;;5065087;28;20308;-74
2022/09/28 12:15:04;;;;;;;4.77;1.80;;;;;;;;;;5040901;28;20266;-74
2022/09/28 12:17:33;;;;;;;5.17;2.27;;;;;;;;;;5074355;28;20204;-74
2022/09/28 12:20:04;;;;;;;4.27;1.90;;;;;;;;;;5077537;28;20173;-74
2022/09/28 12:22:48;;;;;;;2.40;1.97;;;;;;;;;;5070814;28;20249;-74
2022/09/28 12:25:15;;;;;;;4.20;1.90;;;;;;;;;;5070449;28;20180;-74
2022/09/28 12:27:52;;;;;;;6.87;1.97;;;;;;;;;;5068658;28;20174;-85
2022/09/28 12:30:18;;;;;;;3.93;1.87;;;;;;;;;;5067878;28;20190;-76
2022/09/28 12:32:49;;;;;;;3.87;1.90;;;;;;;;;;5067084;28;20317;-76
2022/09/28 12:35:23;;;;;;;1.93;1.73;;;;;;;;;;5070652;28;20181;-75
2022/09/28 12:38:00;;;;;;;3.77;2.10;;;;;;;;;;5067025;28;20205;-75
2022/09/28 12:40:35;;;;;;;2.53;2.10;;;;;;;;;;5071308;28;20177;-75
2022/09/28 12:43:33;;;;;;;2.03;1.70;;;;;;;;;;5066553;28;20270;-76
2022/09/28 12:46:18;;;;;;;4.50;2.03;;;;;;;;;;5026853;28;20178;-76
2022/09/28 12:48:52;;;;;;;4.43;2.43;;;;;;;;;;5050971;28;20184;-76
2022/09/28 12:51:35;;;;;;;2.43;1.60;;;;;;;;;;5065568;28;20181;-76
2022/09/28 12:54:19;;;;;;;3.57;2.40;;;;;;;;;;5066720;28;20178;-76
2022/09/28 12:57:09;;;;;;;5.30;2.30;;;;;;;;;;5063019;28;20201;-76
2022/09/28 12:59:37;;;;;;;3.23;1.70;;;;;;;;;;5072148;28;20216;-76
2022/09/28 13:02:11;;;;;;;2.70;1.60;;;;;;;;;;5067819;28;20174;-75
2022/09/28 13:04:55;;;;;;;3.57;1.67;;;;;;;;;;5064733;28;21437;-75
2022/09/28 13:07:23;;;;;;;2.13;1.63;;;;;;;;;;5067647;28;20177;-76
2022/09/28 13:10:12;;;;;;;3.07;1.40;;;;;;;;;;5067535;28;20181;-76
2022/09/28 13:12:45;;;;;;;2.83;1.60;;;;;;;;;;5059526;28;20451;-76
2022/09/28 13:15:14;;;;;;;4.20;1.90;;;;;;;;;;5071143;28;20212;-75
2022/09/28 13:17:39;;;;;;;2.33;1.70;;;;;;;;;;5068807;28;20256;-76
2022/09/28 13:20:07;;;;;;;2.43;1.97;;;;;;;;;;5075696;28;20216;-76
2022/09/28 13:22:39;;;;;;;2.33;1.60;;;;;;;;;;5073740;28;20174;-76
2022/09/28 13:25:13;;;;;;;1.87;1.77;;;;;;;;;;5071168;28;20178;-76
2022/09/28 13:27:45;;;;;;;1.70;1.60;;;;;;;;;;5060500;28;20188;-76
2022/09/28 13:30:14;;;;;;;4.60;1.77;;;;;;;;;;5068735;28;20190;-76
2022/09/28 13:32:39;;;;;;;1.50;1.40;;;;;;;;;;5066404;28;20278;-76
2022/09/28 13:35:05;;;;;;;3.70;1.37;;;;;;;;;;5061087;28;20178;-76
2022/09/28 13:37:32;;;;;;;2.27;1.33;;;;;;;;;;5058217;28;21397;-76
2022/09/28 13:39:58;;;;;;;3.00;2.07;;;;;;;;;;5061244;28;20174;-76
2022/09/28 13:42:41;;;;;;;2.33;1.53;;;;;;;;;;5067872;28;20189;-76
2022/09/28 13:45:08;;;;;;;4.07;2.27;;;;;;;;;;5062310;28;20183;-76
2022/09/28 13:47:33;;;;;;;2.77;1.90;;;;;;;;;;5061458;28;20182;-76
2022/09/28 13:50:17;;;;;;;2.13;1.73;;;;;;;;;;5063535;28;20180;-76
2022/09/28 13:52:48;;;;;;;5.50;2.40;;;;;;;;;;5064584;28;20179;-76
2022/09/28 13:55:26;;;;;;;3.87;2.23;;;;;;;;;;5059911;28;20192;-76
2022/09/28 13:57:55;;;;;;;2.70;2.00;;;;;;;;;;5062531;28;20222;-76
2022/09/28 14:00:25;;;;;;;3.97;1.77;;;;;;;;;;5081504;28;20175;-76
2022/09/28 14:03:00;;;;;;;2.47;1.80;;;;;;;;;;5067063;28;20183;-76
2022/09/28 14:05:36;;;;;;;2.30;2.00;;;;;;;;;;5065122;28;20194;-76
2022/09/28 14:08:07;;;;;;;2.30;1.70;;;;;;;;;;5061301;28;20190;-75
2022/09/28 14:10:52;;;;;;;5.20;1.90;;;;;;;;;;5064526;28;20170;-75
2022/09/28 14:13:36;;;;;;;6.63;2.57;;;;;;;;;;5066847;28;20178;-76
2022/09/28 14:16:16;;;;;;;2.60;1.47;;;;;;;;;;5070676;28;20187;-76
2022/09/28 14:18:43;;;;;;;4.10;1.70;;;;;;;;;;5060897;28;20179;-76
2022/09/28 14:21:11;;;;;;;4.27;2.03;;;;;;;;;;5064336;28;20189;-76
2022/09/28 14:23:39;;;;;;;1.60;1.27;;;;;;;;;;5074299;28;20178;-76
2022/09/28 14:26:19;;;;;;;1.97;1.40;;;;;;;;;;5061356;28;20174;-76
2022/09/28 14:29:07;;;;;;;2.77;1.37;;;;;;;;;;5083286;28;20540;-76
2022/09/28 14:31:32;;;;;;;4.83;1.67;;;;;;;;;;5058851;28;20229;-76
2022/09/28 14:34:00;;;;;;;2.63;1.13;;;;;;;;;;5060771;28;20186;-76
2022/09/28 14:42:16;;;;;;;1.73;1.47;;;;;;;;;;5063812;28;20297;-76
2022/09/28 14:45:00;;;;;;;7.13;3.90;;;;;;;;;;5059617;28;20340;-76
2022/09/28 14:47:54;;;;;;;2.70;1.57;;;;;;;;;;5066579;28;20185;-76
2022/09/28 14:50:27;;;;;;;2.93;1.40;;;;;;;;;;4994236;28;20220;-76
2022/09/28 14:52:53;;;;;;;3.97;1.83;;;;;;;;;;5069129;28;20446;-76
2022/09/28 14:55:22;;;;;;;2.77;1.87;;;;;;;;;;5062493;28;20180;-76
2022/09/28 14:57:54;;;;;;;3.33;1.70;;;;;;;;;;5060455;28;20285;-75
2022/09/28 15:00:21;;;;;;;3.17;1.60;;;;;;;;;;5055495;28;20208;-76
2022/09/28 15:02:47;;;;;;;2.80;1.50;;;;;;;;;;5066745;28;20179;-76
2022/09/28 15:05:15;;;;;;;2.20;1.57;;;;;;;;;;5052988;28;20236;-76
2022/09/28 15:07:45;;;;;;;5.67;2.17;;;;;;;;;;5063376;28;20189;-76
2022/09/28 15:10:22;;;;;;;4.23;3.10;;;;;;;;;;5060092;28;20210;-76
2022/09/28 15:12:49;;;;;;;7.23;4.03;;;;;;;;;;5068628;28;20178;-76
2022/09/28 15:15:49;;;;;;;2.07;1.47;;;;;;;;;;5069901;28;20183;-76
2022/09/28 15:18:17;;;;;;;2.80;1.27;;;;;;;;;;5006049;28;20244;-76
2022/09/28 15:20:45;;;;;;;1.90;1.07;;;;;;;;;;5068868;28;20176;-76
2022/09/28 15:23:38;;;;;;;1.93;1.40;;;;;;;;;;5061258;28;20277;-76
2022/09/28 15:26:07;;;;;;;5.20;1.63;;;;;;;;;;5062281;28;20188;-76
2022/09/28 15:28:33;;;;;;;3.73;1.60;;;;;;;;;;5061861;28;20182;-76
2022/09/28 15:31:00;;;;;;;3.53;1.67;;;;;;;;;;5059919;28;20198;-76
2022/09/28 15:36:27;;;;;;;1.57;1.17;;;;;;;;;;5062462;28;20191;-76
2022/09/28 15:38:56;;;;;;;3.23;1.93;;;;;;;;;;5065564;28;20184;-76
2022/09/28 15:41:23;;;;;;;4.47;2.60;;;;;;;;;;5067175;28;20305;-76
2022/09/28 15:44:07;;;;;;;2.40;1.90;;;;;;;;;;5067965;28;20195;-76
2022/09/28 15:46:33;;;;;;;1.57;1.47;;;;;;;;;;5072010;28;20190;-76
2022/09/28 15:49:00;;;;;;;4.00;1.90;;;;;;;;;;5064438;28;20258;-76